createdAt,value
2022-12-23T00:00:10.392Z,0.50
2022-12-23T00:01:10.295Z,1.10
2022-12-23T00:02:10.382Z,1.50
2022-12-23T00:03:10.465Z,1.20
2022-12-23T00:04:10.328Z,0.60
2022-12-23T00:05:10.503Z,0.90
2022-12-23T00:06:10.361Z,0.50
2022-12-23T00:07:10.224Z,0.80
2022-12-23T00:08:10.190Z,2.20
2022-12-23T00:09:10.203Z,1.30
2022-12-23T00:10:10.182Z,1.70
2022-12-23T00:11:10.180Z,0.80
2022-12-23T00:12:10.545Z,0.90
2022-12-23T00:13:10.206Z,1.00
2022-12-23T00:14:13.272Z,2.10
2022-12-23T00:15:10.150Z,0.70
2022-12-23T00:16:10.166Z,1.50
2022-12-23T00:17:22.170Z,1.70
2022-12-23T00:18:10.182Z,1.40
2022-12-23T00:19:10.419Z,1.40
2022-12-23T00:20:10.087Z,1.40
2022-12-23T00:21:10.129Z,1.00
2022-12-23T00:22:10.150Z,0.80
2022-12-23T00:23:10.076Z,1.30
2022-12-23T00:24:10.122Z,1.20
2022-12-23T00:25:10.028Z,0.60
2022-12-23T00:26:10.326Z,2.10
2022-12-23T00:27:10.000Z,1.40
2022-12-23T00:28:10.006Z,1.70
2022-12-23T00:29:10.001Z,2.30
2022-12-23T00:30:10.006Z,1.60
2022-12-23T00:31:09.967Z,0.80
2022-12-23T00:32:10.042Z,1.60
2022-12-23T00:33:10.261Z,1.30
2022-12-23T00:34:09.929Z,0.90
2022-12-23T00:35:09.917Z,1.10
2022-12-23T00:36:10.032Z,1.40
2022-12-23T00:37:09.920Z,1.10
2022-12-23T00:38:09.909Z,2.30
2022-12-23T00:39:09.946Z,1.50
2022-12-23T00:40:10.183Z,1.40
2022-12-23T00:41:09.861Z,0.60
2022-12-23T00:42:09.893Z,0.90
2022-12-23T00:43:09.849Z,1.30
2022-12-23T00:44:09.833Z,1.20
2022-12-23T00:45:09.829Z,1.20
2022-12-23T00:46:09.878Z,1.20
2022-12-23T00:47:10.066Z,2.00
2022-12-23T00:48:09.809Z,1.00
2022-12-23T00:49:09.778Z,1.20
2022-12-23T00:50:09.778Z,2.30
2022-12-23T00:51:09.769Z,0.90
2022-12-23T00:52:09.754Z,1.30
2022-12-23T00:53:09.733Z,1.10
2022-12-23T00:54:10.059Z,1.50
2022-12-23T00:55:09.705Z,1.40
2022-12-23T00:56:09.714Z,1.10
2022-12-23T00:57:09.702Z,1.30
2022-12-23T00:58:09.691Z,2.50
2022-12-23T00:59:09.708Z,1.00
2022-12-23T01:00:09.752Z,1.60
2022-12-23T01:01:09.961Z,2.10
2022-12-23T01:02:09.790Z,1.10
2022-12-23T01:03:09.834Z,3.90
2022-12-23T01:04:09.625Z,1.80
2022-12-23T01:05:09.620Z,1.70
2022-12-23T01:06:09.652Z,1.60
2022-12-23T01:07:09.612Z,1.50
2022-12-23T01:08:09.856Z,1.10
2022-12-23T01:09:09.600Z,1.80
2022-12-23T01:10:09.602Z,0.70
2022-12-23T01:11:09.549Z,2.50
2022-12-23T01:12:09.585Z,0.60
2022-12-23T01:13:09.539Z,1.40
2022-12-23T01:14:09.522Z,1.00
2022-12-23T01:15:09.793Z,1.10
2022-12-23T01:16:15.046Z,1.90
2022-12-23T01:17:09.645Z,1.20
2022-12-23T01:18:09.518Z,0.70
2022-12-23T01:19:09.484Z,1.80
2022-12-23T01:20:09.470Z,1.10
2022-12-23T01:21:09.442Z,2.50
2022-12-23T01:22:09.749Z,1.20
2022-12-23T01:23:09.461Z,1.40
2022-12-23T01:24:09.497Z,1.50
2022-12-23T01:25:09.403Z,1.00
2022-12-23T01:26:09.402Z,1.10
2022-12-23T01:27:09.376Z,1.70
2022-12-23T01:28:09.390Z,1.50
2022-12-23T01:29:09.642Z,1.50
2022-12-23T01:30:09.367Z,1.30
2022-12-23T01:31:09.327Z,1.30
2022-12-23T01:32:09.418Z,1.80
2022-12-23T01:33:09.323Z,1.20
2022-12-23T01:34:09.312Z,1.10
2022-12-23T01:35:09.303Z,1.40
2022-12-23T01:36:09.617Z,1.80
2022-12-23T01:37:09.272Z,1.30
2022-12-23T01:38:09.260Z,1.60
2022-12-23T01:39:09.251Z,1.60
2022-12-23T01:40:09.292Z,1.40
2022-12-23T01:41:09.246Z,0.90
2022-12-23T01:42:09.301Z,1.30
2022-12-23T01:43:09.512Z,1.70
2022-12-23T01:44:09.198Z,0.70
2022-12-23T01:45:09.193Z,1.70
2022-12-23T01:46:09.265Z,1.60
2022-12-23T01:47:09.169Z,0.60
2022-12-23T01:48:09.209Z,1.10
2022-12-23T01:49:09.156Z,2.40
2022-12-23T01:50:09.150Z,1.30
2022-12-23T01:51:09.140Z,1.40
2022-12-23T01:52:09.139Z,1.00
2022-12-23T01:53:09.106Z,1.30
2022-12-23T01:54:09.182Z,1.00
2022-12-23T01:55:09.101Z,1.20
2022-12-23T01:56:09.366Z,0.90
2022-12-23T01:57:09.083Z,1.10
2022-12-23T01:58:09.068Z,0.90
2022-12-23T01:59:09.068Z,1.10
2022-12-23T02:00:09.072Z,1.70
2022-12-23T02:01:09.052Z,1.20
2022-12-23T02:02:09.360Z,1.00
2022-12-23T02:03:09.161Z,1.40
2022-12-23T02:04:08.986Z,1.90
2022-12-23T02:05:08.985Z,1.20
2022-12-23T02:06:09.012Z,2.00
2022-12-23T02:07:08.959Z,1.20
2022-12-23T02:08:09.234Z,1.20
2022-12-23T02:09:08.945Z,2.00
2022-12-23T02:10:08.942Z,1.20
2022-12-23T02:11:09.491Z,1.40
2022-12-23T02:12:08.958Z,0.70
2022-12-23T02:13:08.903Z,1.50
2022-12-23T02:14:09.184Z,1.50
2022-12-23T02:15:08.888Z,1.40
2022-12-23T02:16:08.861Z,0.90
2022-12-23T02:17:08.922Z,1.00
2022-12-23T02:18:08.894Z,1.00
2022-12-23T02:19:08.829Z,1.30
2022-12-23T02:20:08.827Z,1.10
2022-12-23T02:21:09.146Z,1.20
2022-12-23T02:22:08.800Z,1.40
2022-12-23T02:23:08.788Z,1.00
2022-12-23T02:24:08.851Z,1.50
2022-12-23T02:25:08.769Z,1.10
2022-12-23T02:26:08.766Z,1.10
2022-12-23T02:27:08.747Z,1.30
2022-12-23T02:28:09.067Z,1.00
2022-12-23T02:29:08.723Z,1.50
2022-12-23T02:30:08.758Z,1.00
2022-12-23T02:31:08.827Z,1.10
2022-12-23T02:32:08.706Z,1.20
2022-12-23T02:33:08.706Z,2.40
2022-12-23T02:34:08.679Z,1.90
2022-12-23T02:35:08.941Z,0.50
2022-12-23T02:36:08.681Z,1.70
2022-12-23T02:37:08.671Z,1.10
2022-12-23T02:38:08.639Z,1.70
2022-12-23T02:39:08.631Z,0.70
2022-12-23T02:40:08.618Z,0.80
2022-12-23T02:41:08.629Z,3.00
2022-12-23T02:42:08.979Z,1.70
2022-12-23T02:43:08.595Z,1.00
2022-12-23T02:44:08.584Z,0.70
2022-12-23T02:45:08.561Z,1.30
2022-12-23T02:46:08.606Z,1.50
2022-12-23T02:47:08.541Z,0.60
2022-12-23T02:48:08.573Z,0.70
2022-12-23T02:49:08.836Z,1.00
2022-12-23T02:50:08.517Z,0.70
2022-12-23T02:51:08.490Z,1.60
2022-12-23T02:52:08.492Z,1.30
2022-12-23T02:53:08.473Z,1.20
2022-12-23T02:54:08.529Z,1.40
2022-12-23T02:55:08.456Z,0.60
2022-12-23T02:56:08.734Z,0.60
2022-12-23T02:57:08.453Z,1.00
2022-12-23T02:58:08.436Z,2.00
2022-12-23T02:59:08.425Z,0.70
2022-12-23T03:00:08.475Z,1.10
2022-12-23T03:01:08.413Z,0.90
2022-12-23T03:02:08.621Z,0.60
2022-12-23T03:03:08.790Z,0.80
2022-12-23T03:04:08.377Z,0.50
2022-12-23T03:05:08.347Z,0.60
2022-12-23T03:06:08.374Z,1.30
2022-12-23T03:07:11.404Z,1.60
2022-12-23T03:08:08.336Z,2.70
2022-12-23T03:09:08.326Z,4.70
2022-12-23T03:10:08.590Z,3.00
2022-12-23T03:11:08.290Z,1.00
2022-12-23T03:12:08.324Z,1.50
2022-12-23T03:13:08.276Z,15.40
2022-12-23T03:14:08.266Z,14.50
2022-12-23T03:15:08.277Z,18.70
2022-12-23T03:16:08.323Z,29.10
2022-12-23T03:17:08.506Z,30.10
2022-12-23T03:18:08.294Z,2.90
2022-12-23T03:19:08.204Z,3.50
2022-12-23T03:20:08.209Z,58.10
2022-12-23T03:21:08.182Z,64.80
2022-12-23T03:22:08.180Z,27.10
2022-12-23T03:23:08.177Z,21.50
2022-12-23T03:24:08.479Z,79.60
2022-12-23T03:25:08.147Z,80.80
2022-12-23T03:26:08.137Z,66.60
2022-12-23T03:27:08.139Z,88.00
2022-12-23T03:28:08.159Z,12.20
2022-12-23T03:29:08.113Z,14.70
2022-12-23T03:30:08.159Z,426.10
2022-12-23T03:31:08.436Z,471.20
2022-12-23T03:32:08.087Z,388.00
2022-12-23T03:33:08.059Z,358.30
2022-12-23T03:34:08.067Z,37.90
2022-12-23T03:35:08.035Z,66.70
2022-12-23T03:36:08.084Z,792.90
2022-12-23T03:37:08.050Z,628.00
2022-12-23T03:38:08.309Z,71.90
2022-12-23T03:39:08.001Z,144.00
2022-12-23T03:40:08.004Z,335.60
2022-12-23T03:41:07.989Z,834.40
2022-12-23T03:42:08.010Z,860.50
2022-12-23T03:43:07.958Z,845.30
2022-12-23T03:44:07.949Z,853.20
2022-12-23T03:45:40.067Z,857.00
2022-12-23T03:46:08.028Z,847.40
2022-12-23T03:47:07.932Z,819.90
2022-12-23T03:48:07.959Z,856.30
2022-12-23T03:49:07.907Z,850.70
2022-12-23T03:50:07.939Z,857.30
2022-12-23T03:51:07.875Z,811.20
2022-12-23T03:52:08.147Z,843.20
2022-12-23T03:53:07.855Z,742.40
2022-12-23T03:54:07.880Z,407.00
2022-12-23T03:55:07.860Z,3.20
2022-12-23T03:56:07.825Z,2.40
2022-12-23T03:57:07.833Z,2.50
2022-12-23T03:58:07.856Z,2.10
2022-12-23T03:59:08.075Z,2.40
2022-12-23T04:00:07.834Z,2.60
2022-12-23T04:01:07.778Z,2.00
2022-12-23T04:02:07.924Z,2.30
2022-12-23T04:03:07.750Z,1.80
2022-12-23T04:04:07.778Z,0.90
2022-12-23T04:05:07.733Z,1.80
2022-12-23T04:06:08.078Z,3.10
2022-12-23T04:07:07.769Z,2.90
2022-12-23T04:08:07.711Z,3.40
2022-12-23T04:09:07.687Z,1.70
2022-12-23T04:10:07.680Z,3.60
2022-12-23T04:11:07.668Z,2.20
2022-12-23T04:12:07.711Z,2.90
2022-12-23T04:13:07.970Z,3.30
2022-12-23T04:14:07.645Z,2.40
2022-12-23T04:15:12.600Z,1.30
2022-12-23T04:16:07.725Z,2.20
2022-12-23T04:17:07.608Z,2.50
2022-12-23T04:18:07.642Z,1.80
2022-12-23T04:19:07.598Z,1.80
2022-12-23T04:20:07.852Z,2.00
2022-12-23T04:21:07.568Z,2.00
2022-12-23T04:22:07.555Z,2.20
2022-12-23T04:23:07.552Z,2.00
2022-12-23T04:24:07.578Z,1.80
2022-12-23T04:25:07.514Z,1.80
2022-12-23T04:26:07.521Z,1.10
2022-12-23T04:27:07.792Z,1.50
2022-12-23T04:28:07.531Z,1.20
2022-12-23T04:29:07.487Z,2.20
2022-12-23T04:30:07.546Z,0.90
2022-12-23T04:31:07.526Z,2.10
2022-12-23T04:32:07.453Z,1.20
2022-12-23T04:33:07.431Z,1.70
2022-12-23T04:34:07.724Z,1.90
2022-12-23T04:35:07.437Z,0.90
2022-12-23T04:36:07.469Z,1.30
2022-12-23T04:37:07.419Z,2.70
2022-12-23T04:38:07.395Z,1.40
2022-12-23T04:39:07.381Z,1.80
2022-12-23T04:40:07.400Z,1.00
2022-12-23T04:41:07.636Z,1.60
2022-12-23T04:42:07.421Z,2.30
2022-12-23T04:43:07.335Z,1.30
2022-12-23T04:44:07.348Z,1.60
2022-12-23T04:45:07.320Z,1.40
2022-12-23T04:46:07.371Z,1.00
2022-12-23T04:47:07.400Z,1.40
2022-12-23T04:48:07.330Z,1.80
2022-12-23T04:49:07.277Z,2.80
2022-12-23T04:50:07.550Z,2.40
2022-12-23T04:51:07.279Z,0.60
2022-12-23T04:52:07.244Z,0.60
2022-12-23T04:53:07.228Z,2.70
2022-12-23T04:54:07.268Z,3.40
2022-12-23T04:55:07.218Z,2.80
2022-12-23T04:56:07.227Z,2.60
2022-12-23T04:57:07.469Z,0.40
2022-12-23T04:58:07.184Z,2.30
2022-12-23T04:59:07.173Z,1.30
2022-12-23T05:00:07.206Z,1.90
2022-12-23T05:01:07.213Z,3.00
2022-12-23T05:02:07.414Z,1.20
2022-12-23T05:03:07.406Z,2.70
2022-12-23T05:04:07.404Z,3.80
2022-12-23T05:05:07.122Z,1.50
2022-12-23T05:06:07.158Z,1.20
2022-12-23T05:07:07.095Z,0.90
2022-12-23T05:08:07.097Z,0.70
2022-12-23T05:09:07.073Z,1.40
2022-12-23T05:10:07.063Z,1.60
2022-12-23T05:11:07.351Z,1.60
2022-12-23T05:12:07.078Z,1.30
2022-12-23T05:13:07.020Z,1.10
2022-12-23T05:14:07.025Z,1.20
2022-12-23T05:15:07.008Z,2.20
2022-12-23T05:16:07.030Z,0.80
2022-12-23T05:17:07.942Z,1.20
2022-12-23T05:18:07.331Z,1.30
2022-12-23T05:19:06.958Z,0.60
2022-12-23T05:20:06.956Z,0.50
2022-12-23T05:21:06.951Z,0.40
2022-12-23T05:22:06.938Z,0.70
2022-12-23T05:23:06.932Z,0.80
2022-12-23T05:24:06.969Z,1.60
2022-12-23T05:25:07.216Z,1.70
2022-12-23T05:26:06.891Z,0.60
2022-12-23T05:27:06.886Z,0.50
2022-12-23T05:28:06.890Z,1.90
2022-12-23T05:29:06.881Z,1.20
2022-12-23T05:30:06.877Z,1.10
2022-12-23T05:31:06.982Z,1.50
2022-12-23T05:32:07.207Z,1.20
2022-12-23T05:33:06.855Z,2.10
2022-12-23T05:34:07.085Z,1.10
2022-12-23T05:35:06.797Z,0.70
2022-12-23T05:36:06.832Z,1.50
2022-12-23T05:37:06.785Z,0.80
2022-12-23T05:38:06.776Z,0.80
2022-12-23T05:39:07.041Z,0.90
2022-12-23T05:40:06.763Z,0.90
2022-12-23T05:41:06.741Z,1.40
2022-12-23T05:42:06.777Z,1.60
2022-12-23T05:43:06.719Z,0.70
2022-12-23T05:44:06.725Z,0.90
2022-12-23T05:45:06.698Z,1.50
2022-12-23T05:46:07.056Z,1.30
2022-12-23T05:47:06.689Z,1.60
2022-12-23T05:48:06.703Z,0.70
2022-12-23T05:49:06.657Z,1.50
2022-12-23T05:50:06.655Z,1.10
2022-12-23T05:51:06.643Z,0.60
2022-12-23T05:52:06.641Z,0.50
2022-12-23T05:53:06.891Z,0.90
2022-12-23T05:54:06.656Z,0.50
2022-12-23T05:55:06.590Z,0.60
2022-12-23T05:56:06.618Z,1.00
2022-12-23T05:57:06.575Z,0.90
2022-12-23T05:58:06.591Z,1.40
2022-12-23T05:59:06.555Z,0.40
2022-12-23T06:00:06.888Z,1.30
2022-12-23T06:01:06.543Z,1.10
2022-12-23T06:02:06.699Z,1.90
2022-12-23T06:03:06.707Z,2.50
2022-12-23T06:04:06.659Z,0.90
2022-12-23T06:05:06.494Z,1.20
2022-12-23T06:06:06.508Z,0.90
2022-12-23T06:07:06.758Z,1.10
2022-12-23T06:08:06.479Z,1.60
2022-12-23T06:09:06.456Z,1.20
2022-12-23T06:10:06.442Z,0.40
2022-12-23T06:11:06.445Z,0.90
2022-12-23T06:12:06.472Z,0.60
2022-12-23T06:13:06.401Z,1.30
2022-12-23T06:14:06.700Z,0.60
2022-12-23T06:15:06.393Z,2.10
2022-12-23T06:16:06.403Z,0.70
2022-12-23T06:17:06.425Z,1.30
2022-12-23T06:18:06.390Z,1.30
2022-12-23T06:19:06.353Z,0.90
2022-12-23T06:20:06.360Z,1.00
2022-12-23T06:21:06.612Z,1.50
2022-12-23T06:22:06.324Z,1.30
2022-12-23T06:23:06.336Z,0.40
2022-12-23T06:24:06.346Z,1.00
2022-12-23T06:25:06.309Z,2.20
2022-12-23T06:26:06.272Z,1.00
2022-12-23T06:27:06.265Z,0.80
2022-12-23T06:28:06.526Z,2.10
2022-12-23T06:29:06.242Z,1.40
2022-12-23T06:30:06.577Z,0.80
2022-12-23T06:31:06.233Z,0.60
2022-12-23T06:32:06.324Z,1.00
2022-12-23T06:33:06.213Z,0.60
2022-12-23T06:34:06.192Z,2.90
2022-12-23T06:35:06.469Z,1.20
2022-12-23T06:36:06.209Z,1.10
2022-12-23T06:37:06.169Z,0.90
2022-12-23T06:38:11.690Z,0.40
2022-12-23T06:39:06.170Z,0.90
2022-12-23T06:40:06.143Z,1.20
2022-12-23T06:41:06.140Z,2.70
2022-12-23T06:42:06.428Z,1.20
2022-12-23T06:43:06.092Z,1.30
2022-12-23T06:44:06.086Z,2.00
2022-12-23T06:45:06.100Z,1.20
2022-12-23T06:46:06.152Z,1.10
2022-12-23T06:47:06.076Z,1.00
2022-12-23T06:48:06.081Z,0.70
2022-12-23T06:49:12.831Z,0.60
2022-12-23T06:50:06.038Z,0.80
2022-12-23T06:51:06.031Z,0.50
2022-12-23T06:52:06.003Z,1.30
2022-12-23T06:53:06.013Z,1.00
2022-12-23T06:54:06.019Z,1.30
2022-12-23T06:55:05.967Z,0.60
2022-12-23T06:56:06.249Z,0.60
2022-12-23T06:57:05.958Z,0.50
2022-12-23T06:58:06.018Z,1.50
2022-12-23T06:59:05.941Z,0.60
2022-12-23T07:00:05.984Z,0.60
2022-12-23T07:01:05.990Z,0.90
2022-12-23T07:02:06.086Z,1.20
2022-12-23T07:03:06.384Z,1.20
2022-12-23T07:04:05.881Z,0.60
2022-12-23T07:05:05.998Z,0.90
2022-12-23T07:06:05.911Z,1.90
2022-12-23T07:07:05.857Z,1.20
2022-12-23T07:08:05.882Z,0.70
2022-12-23T07:09:05.832Z,1.80
2022-12-23T07:10:06.098Z,1.20
2022-12-23T07:11:05.806Z,0.90
2022-12-23T07:12:05.855Z,0.80
2022-12-23T07:13:05.780Z,1.00
2022-12-23T07:14:05.783Z,0.90
2022-12-23T07:15:05.780Z,0.40
2022-12-23T07:16:05.828Z,1.70
2022-12-23T07:17:06.201Z,1.10
2022-12-23T07:18:05.788Z,0.50
2022-12-23T07:19:05.753Z,1.40
2022-12-23T07:20:05.734Z,1.50
2022-12-23T07:21:08.834Z,0.70
2022-12-23T07:22:05.761Z,0.80
2022-12-23T07:23:05.688Z,1.20
2022-12-23T07:24:06.010Z,0.80
2022-12-23T07:25:05.674Z,0.70
2022-12-23T07:26:05.670Z,0.60
2022-12-23T07:27:05.653Z,1.10
2022-12-23T07:28:05.642Z,0.80
2022-12-23T07:29:05.649Z,1.60
2022-12-23T07:30:05.671Z,0.70
2022-12-23T07:31:05.908Z,0.70
2022-12-23T07:32:05.709Z,0.50
2022-12-23T07:33:05.595Z,1.60
2022-12-23T07:34:05.585Z,2.30
2022-12-23T07:35:05.562Z,1.00
2022-12-23T07:36:05.602Z,0.90
2022-12-23T07:37:05.578Z,1.10
2022-12-23T07:38:05.832Z,1.80
2022-12-23T07:39:05.541Z,1.70
2022-12-23T07:40:08.795Z,1.70
2022-12-23T07:41:05.587Z,0.80
2022-12-23T07:43:05.502Z,0.90
2022-12-23T07:44:05.471Z,0.50
2022-12-23T07:45:05.880Z,0.90
2022-12-23T07:46:05.493Z,0.60
2022-12-23T07:47:05.464Z,1.30
2022-12-23T07:48:05.496Z,2.00
2022-12-23T07:49:05.465Z,0.60
2022-12-23T07:50:05.462Z,1.10
2022-12-23T07:51:05.461Z,1.30
2022-12-23T07:52:05.707Z,0.40
2022-12-23T07:53:05.390Z,1.80
2022-12-23T07:54:05.479Z,0.70
2022-12-23T07:55:05.388Z,1.10
2022-12-23T07:56:05.348Z,1.10
2022-12-23T07:57:05.349Z,1.40
2022-12-23T07:58:05.338Z,1.00
2022-12-23T07:59:05.631Z,2.40
2022-12-23T08:00:05.333Z,0.80
2022-12-23T08:01:05.420Z,0.70
2022-12-23T08:02:05.510Z,1.60
2022-12-23T08:03:05.547Z,1.70
2022-12-23T08:04:05.294Z,1.20
2022-12-23T08:05:05.365Z,1.80
2022-12-23T08:06:05.312Z,0.90
2022-12-23T08:07:05.344Z,1.00
2022-12-23T08:08:05.270Z,1.20
2022-12-23T08:09:05.312Z,0.80
2022-12-23T08:10:05.347Z,0.70
2022-12-23T08:11:05.251Z,2.20
2022-12-23T08:12:05.522Z,1.00
2022-12-23T08:13:05.213Z,1.00
2022-12-23T08:14:05.208Z,0.50
2022-12-23T08:15:05.199Z,0.90
2022-12-23T08:16:05.277Z,1.50
2022-12-23T08:17:05.441Z,1.30
2022-12-23T08:18:05.172Z,1.80
2022-12-23T08:19:05.393Z,1.20
2022-12-23T08:20:05.128Z,1.00
2022-12-23T08:21:05.123Z,1.30
2022-12-23T08:22:05.113Z,1.40
2022-12-23T08:23:05.111Z,0.90
2022-12-23T08:24:05.166Z,0.90
2022-12-23T08:25:05.087Z,1.80
2022-12-23T08:26:05.349Z,0.80
2022-12-23T08:27:05.075Z,0.80
2022-12-23T08:28:05.129Z,1.20
2022-12-23T08:29:05.032Z,0.50
2022-12-23T08:30:05.065Z,0.80
2022-12-23T08:31:05.203Z,0.50
2022-12-23T08:32:05.002Z,0.60
2022-12-23T08:33:05.007Z,0.60
2022-12-23T08:34:05.030Z,2.80
2022-12-23T08:35:04.999Z,1.40
2022-12-23T08:36:04.993Z,1.70
2022-12-23T08:37:04.940Z,0.80
2022-12-23T08:38:05.030Z,1.00
2022-12-23T08:39:05.210Z,0.50
2022-12-23T08:40:05.010Z,0.80
2022-12-23T08:41:04.947Z,1.00
2022-12-23T08:42:04.954Z,1.40
2022-12-23T08:43:04.900Z,0.70
2022-12-23T08:44:04.863Z,2.40
2022-12-23T08:45:04.860Z,0.60
2022-12-23T08:46:04.905Z,0.70
2022-12-23T08:47:04.850Z,1.50
2022-12-23T08:48:04.943Z,0.70
2022-12-23T08:49:04.820Z,1.30
2022-12-23T08:50:04.805Z,0.70
2022-12-23T08:51:04.795Z,0.70
2022-12-23T08:52:04.804Z,1.20
2022-12-23T08:53:04.776Z,1.40
2022-12-23T08:54:04.827Z,1.00
2022-12-23T08:55:04.798Z,0.70
2022-12-23T08:56:04.762Z,1.20
2022-12-23T08:57:05.048Z,0.70
2022-12-23T08:58:04.713Z,0.50
2022-12-23T08:59:04.743Z,2.60
2022-12-23T09:00:04.869Z,0.60
2022-12-23T09:01:04.759Z,0.50
2022-12-23T09:02:04.839Z,0.90
2022-12-23T09:03:04.818Z,1.00
2022-12-23T09:04:05.028Z,0.80
2022-12-23T09:05:04.675Z,1.20
2022-12-23T09:06:04.716Z,1.30
2022-12-23T09:07:04.659Z,0.80
2022-12-23T09:08:04.611Z,2.10
2022-12-23T09:09:04.647Z,1.20
2022-12-23T09:10:04.661Z,0.70
2022-12-23T09:11:04.896Z,1.50
2022-12-23T09:12:04.684Z,1.30
2022-12-23T09:13:04.557Z,2.70
2022-12-23T09:14:04.599Z,1.70
2022-12-23T09:15:04.596Z,1.10
2022-12-23T09:16:04.636Z,2.40
2022-12-23T09:17:04.549Z,1.80
2022-12-23T09:18:04.574Z,1.00
2022-12-23T09:19:04.558Z,0.90
2022-12-23T09:20:04.496Z,0.80
2022-12-23T09:21:04.501Z,1.20
2022-12-23T09:22:04.558Z,0.70
2022-12-23T09:23:04.513Z,0.50
2022-12-23T09:24:04.809Z,1.10
2022-12-23T09:25:05.474Z,0.60
2022-12-23T09:26:04.498Z,1.10
2022-12-23T09:27:04.502Z,1.20
2022-12-23T09:28:04.515Z,0.70
2022-12-23T09:29:04.489Z,0.80
2022-12-23T09:30:04.490Z,1.30
2022-12-23T09:31:04.820Z,1.30
2022-12-23T09:32:04.461Z,1.20
2022-12-23T09:33:04.401Z,2.30
2022-12-23T09:34:04.360Z,0.90
2022-12-23T09:35:04.396Z,1.00
2022-12-23T09:36:04.516Z,1.30
2022-12-23T09:37:04.428Z,1.30
2022-12-23T09:38:04.628Z,0.80
2022-12-23T09:39:04.382Z,1.00
2022-12-23T09:40:04.296Z,1.10
2022-12-23T09:41:04.330Z,0.60
2022-12-23T09:42:04.473Z,0.60
2022-12-23T09:43:04.387Z,1.10
2022-12-23T09:44:04.294Z,1.50
2022-12-23T09:45:04.548Z,0.40
2022-12-23T09:46:04.297Z,1.40
2022-12-23T09:47:04.245Z,1.70
2022-12-23T09:48:04.314Z,1.60
2022-12-23T09:49:04.269Z,1.10
2022-12-23T09:50:04.258Z,0.80
2022-12-23T09:51:04.286Z,1.10
2022-12-23T09:52:04.209Z,0.60
2022-12-23T09:53:04.212Z,1.00
2022-12-23T09:54:04.250Z,0.70
2022-12-23T09:55:04.150Z,0.50
2022-12-23T09:56:04.148Z,0.70
2022-12-23T09:57:04.181Z,2.10
2022-12-23T09:58:04.452Z,0.50
2022-12-23T09:59:04.184Z,0.60
2022-12-23T10:00:04.147Z,0.70
2022-12-23T10:01:04.148Z,0.70
2022-12-23T10:02:04.301Z,1.10
2022-12-23T10:03:04.417Z,1.40
2022-12-23T10:04:04.221Z,1.70
2022-12-23T10:05:04.366Z,1.00
2022-12-23T10:06:04.242Z,0.90
2022-12-23T10:07:04.087Z,0.90
2022-12-23T10:08:04.052Z,0.90
2022-12-23T10:09:04.056Z,0.70
2022-12-23T10:10:04.030Z,2.30
2022-12-23T10:11:04.054Z,1.80
2022-12-23T10:12:04.402Z,0.70
2022-12-23T10:13:04.015Z,0.50
2022-12-23T10:14:03.981Z,1.20
2022-12-23T10:15:03.971Z,1.70
2022-12-23T10:16:04.096Z,0.90
2022-12-23T10:17:04.041Z,0.80
2022-12-23T10:18:04.010Z,1.60
2022-12-23T10:19:04.236Z,1.10
2022-12-23T10:20:03.950Z,0.50
2022-12-23T10:21:03.955Z,0.90
2022-12-23T10:22:03.903Z,1.10
2022-12-23T10:23:03.962Z,0.90
2022-12-23T10:24:03.950Z,0.60
2022-12-23T10:25:03.853Z,1.10
2022-12-23T10:26:03.909Z,1.60
2022-12-23T10:27:03.848Z,1.10
2022-12-23T10:28:03.855Z,0.50
2022-12-23T10:29:03.823Z,0.80
2022-12-23T10:30:26.402Z,0.90
2022-12-23T10:31:38.576Z,0.50
2022-12-23T10:32:03.987Z,1.50
2022-12-23T10:33:03.767Z,0.50
2022-12-23T10:34:03.856Z,0.80
2022-12-23T10:35:03.837Z,1.20
2022-12-23T10:36:03.831Z,0.70
2022-12-23T10:37:03.757Z,1.50
2022-12-23T10:38:03.781Z,1.20
2022-12-23T10:39:03.714Z,1.00
2022-12-23T10:40:03.720Z,0.80
2022-12-23T10:41:08.841Z,1.30
2022-12-23T10:42:03.742Z,1.20
2022-12-23T10:43:03.720Z,1.40
2022-12-23T10:44:03.708Z,1.40
2022-12-23T10:45:03.613Z,0.90
2022-12-23T10:46:03.646Z,1.60
2022-12-23T10:47:03.680Z,0.60
2022-12-23T10:48:06.105Z,0.70
2022-12-23T10:49:03.704Z,3.00
2022-12-23T10:50:03.584Z,1.30
2022-12-23T10:51:03.584Z,2.60
2022-12-23T10:52:03.688Z,0.70
2022-12-23T10:53:03.568Z,0.60
2022-12-23T10:54:03.580Z,1.50
2022-12-23T10:55:03.840Z,2.10
2022-12-23T10:56:03.568Z,1.60
2022-12-23T10:57:03.533Z,1.30
2022-12-23T10:58:03.534Z,0.60
2022-12-23T10:59:03.569Z,1.00
2022-12-23T11:00:03.576Z,2.00
2022-12-23T11:01:06.889Z,0.50
2022-12-23T11:02:03.662Z,2.00
2022-12-23T11:03:03.676Z,1.40
2022-12-23T11:04:03.467Z,0.90
2022-12-23T11:05:03.484Z,1.30
2022-12-23T11:06:03.591Z,1.10
2022-12-23T11:07:41.661Z,0.60
2022-12-23T11:08:03.452Z,1.50
2022-12-23T11:09:03.411Z,0.50
2022-12-23T11:10:03.404Z,1.40
2022-12-23T11:11:03.467Z,1.50
2022-12-23T11:12:03.404Z,1.20
2022-12-23T11:13:03.435Z,0.90
2022-12-23T11:14:03.699Z,0.90
2022-12-23T11:15:03.347Z,1.40
2022-12-23T11:16:03.425Z,0.50
2022-12-23T11:17:03.354Z,0.90
2022-12-23T11:18:03.411Z,1.50
2022-12-23T11:19:03.409Z,1.20
2022-12-23T11:20:03.383Z,1.10
2022-12-23T11:21:03.289Z,2.40
2022-12-23T11:22:03.274Z,1.40
2022-12-23T11:23:03.209Z,1.00
2022-12-23T11:24:03.334Z,0.60
2022-12-23T11:25:03.217Z,0.70
2022-12-23T11:26:03.551Z,1.30
2022-12-23T11:27:03.220Z,1.10
2022-12-23T11:28:03.212Z,4.00
2022-12-23T11:29:03.328Z,1.20
2022-12-23T11:30:03.291Z,1.00
2022-12-23T11:31:03.214Z,1.10
2022-12-23T11:32:03.567Z,0.70
2022-12-23T11:33:03.191Z,1.20
2022-12-23T11:34:03.193Z,1.20
2022-12-23T11:35:03.217Z,0.90
2022-12-23T11:36:03.230Z,0.80
2022-12-23T11:37:07.201Z,1.80
2022-12-23T11:38:03.182Z,1.60
2022-12-23T11:39:03.383Z,1.80
2022-12-23T11:40:03.082Z,0.80
2022-12-23T11:41:03.033Z,0.60
2022-12-23T11:42:03.202Z,0.60
2022-12-23T11:43:03.059Z,1.90
2022-12-23T11:44:03.050Z,0.80
2022-12-23T11:45:03.034Z,1.50
2022-12-23T11:46:03.521Z,1.40
2022-12-23T11:47:03.094Z,1.00
2022-12-23T11:48:03.066Z,0.80
2022-12-23T11:49:03.025Z,1.60
2022-12-23T11:50:03.052Z,2.00
2022-12-23T11:51:02.975Z,1.10
2022-12-23T11:52:02.958Z,0.90
2022-12-23T11:53:03.251Z,1.50
2022-12-23T11:54:03.111Z,0.80
2022-12-23T11:55:02.997Z,0.70
2022-12-23T11:56:02.922Z,0.60
2022-12-23T11:57:03.008Z,1.10
2022-12-23T11:58:02.934Z,0.90
2022-12-23T11:59:02.919Z,0.80
2022-12-23T12:00:03.269Z,1.40
2022-12-23T12:01:02.971Z,1.00
2022-12-23T12:02:02.919Z,1.00
2022-12-23T12:03:02.897Z,1.20
2022-12-23T12:04:03.009Z,0.80
2022-12-23T12:05:02.874Z,0.50
2022-12-23T12:06:02.923Z,0.90
2022-12-23T12:07:03.137Z,1.10
2022-12-23T12:08:02.810Z,0.50
2022-12-23T12:09:02.768Z,1.20
2022-12-23T12:10:02.795Z,1.10
2022-12-23T12:11:02.864Z,0.50
2022-12-23T12:12:02.825Z,1.20
2022-12-23T12:13:02.829Z,1.40
2022-12-23T12:14:03.039Z,1.10
2022-12-23T12:15:02.736Z,1.40
2022-12-23T12:16:02.742Z,1.50
2022-12-23T12:17:02.753Z,0.60
2022-12-23T12:18:02.786Z,0.50
2022-12-23T12:19:02.679Z,0.50
2022-12-23T12:20:02.671Z,1.20
2022-12-23T12:21:03.015Z,0.40
2022-12-23T12:22:02.722Z,0.70
2022-12-23T12:23:02.714Z,0.70
2022-12-23T12:24:17.596Z,1.20
2022-12-23T12:25:02.625Z,1.90
2022-12-23T12:26:02.644Z,2.00
2022-12-23T12:27:02.600Z,0.70
2022-12-23T12:28:02.897Z,0.90
2022-12-23T12:29:02.583Z,1.10
2022-12-23T12:30:08.166Z,1.10
2022-12-23T12:31:02.703Z,1.60
2022-12-23T12:32:02.539Z,0.60
2022-12-23T12:33:02.560Z,1.80
2022-12-23T12:34:02.545Z,1.00
2022-12-23T12:35:02.831Z,0.80
2022-12-23T12:36:05.529Z,0.60
2022-12-23T12:37:02.564Z,1.60
2022-12-23T12:38:02.499Z,0.80
2022-12-23T12:39:02.494Z,0.70
2022-12-23T12:40:02.558Z,0.50
2022-12-23T12:41:02.504Z,1.00
2022-12-23T12:42:05.851Z,1.20
2022-12-23T12:43:02.532Z,1.60
2022-12-23T12:44:02.493Z,0.70
2022-12-23T12:45:02.476Z,0.50
2022-12-23T12:46:02.497Z,0.50
2022-12-23T12:47:11.080Z,1.20
2022-12-23T12:48:10.268Z,0.80
2022-12-23T12:49:02.401Z,0.80
2022-12-23T12:50:02.353Z,1.20
2022-12-23T12:51:02.342Z,0.70
2022-12-23T12:52:02.334Z,1.50
2022-12-23T12:53:02.430Z,1.30
2022-12-23T12:54:05.714Z,0.80
2022-12-23T12:55:02.675Z,0.70
2022-12-23T12:56:02.350Z,0.80
2022-12-23T12:57:02.326Z,0.90
2022-12-23T12:58:02.362Z,0.60
2022-12-23T12:59:02.337Z,0.90
2022-12-23T13:00:06.386Z,2.40
2022-12-23T13:01:02.307Z,1.00
2022-12-23T13:02:02.577Z,2.00
2022-12-23T13:03:02.362Z,0.90
2022-12-23T13:04:02.183Z,1.30
2022-12-23T13:05:02.198Z,0.50
2022-12-23T13:06:02.330Z,0.80
2022-12-23T13:07:02.253Z,1.70
2022-12-23T13:08:02.201Z,1.20
2022-12-23T13:09:02.471Z,0.50
2022-12-23T13:10:02.243Z,2.40
2022-12-23T13:11:02.151Z,0.80
2022-12-23T13:12:02.278Z,0.90
2022-12-23T13:13:02.145Z,0.80
2022-12-23T13:14:02.143Z,0.60
2022-12-23T13:15:02.216Z,1.10
2022-12-23T13:16:02.475Z,1.20
2022-12-23T13:17:02.202Z,1.00